Trimble, Missouri
Current Conditions -  °F | °C
As of 5:53 PM on Thursday 18 Dec 2014 (Local Time) from KMCI Reporting Station
Overcast Overcast  
Wind Chill: -4°   Ceiling: 900
Heat Index:   Visibility: 8mi
Dew Point: -2°   Wind: 7mph
Humidity: 88%   Direction: 40°NE
Pressure: 30.21"   Gusts: NA
Location:  39.47°N, 94.56°W
Report Text: KMCI 182353Z 04006KT 8SM OVC009 00/M02 A3021 RMK AO2 SLP238 4/003 931000 60000 T00001017 10000 21006 50006 $
Loading
Personal Weather Stations






























Interactive Weather Map New forecast layout! Learn more

10-Day Weather Forecast

Advertisements
Track Severe Weather on mobile